sensor_id;sensor_type;location;lat;lon;timestamp;pressure;altitude;pressure_sealevel;temperature;humidity
84083;BME280;74174;52.224;6.878;2024-02-04T00:01:30;101926.38;;;10.26;96.25
84083;BME280;74174;52.224;6.878;2024-02-04T00:03:55;101888.06;;;10.14;95.66
84083;BME280;74174;52.224;6.878;2024-02-04T00:06:21;101884.38;;;10.15;95.64
84083;BME280;74174;52.224;6.878;2024-02-04T00:08:46;101918.97;;;10.36;95.58
84083;BME280;74174;52.224;6.878;2024-02-04T00:11:11;101918.31;;;10.34;95.50
84083;BME280;74174;52.224;6.878;2024-02-04T00:13:38;101920.81;;;10.36;95.90
84083;BME280;74174;52.224;6.878;2024-02-04T00:16:03;101885.91;;;10.10;96.25
84083;BME280;74174;52.224;6.878;2024-02-04T00:18:29;101884.03;;;10.18;96.15
84083;BME280;74174;52.224;6.878;2024-02-04T00:20:54;101916.84;;;10.32;95.81
84083;BME280;74174;52.224;6.878;2024-02-04T00:23:20;101924.25;;;10.36;96.08
84083;BME280;74174;52.224;6.878;2024-02-04T00:25:45;101920.41;;;10.24;97.12
84083;BME280;74174;52.224;6.878;2024-02-04T00:28:10;101923.34;;;10.29;96.57
84083;BME280;74174;52.224;6.878;2024-02-04T00:30:39;101929.47;;;10.30;96.36
84083;BME280;74174;52.224;6.878;2024-02-04T00:33:05;101897.47;;;10.17;96.04
84083;BME280;74174;52.224;6.878;2024-02-04T00:35:30;101932.41;;;10.35;95.65
84083;BME280;74174;52.224;6.878;2024-02-04T00:37:56;101919.44;;;10.40;96.55
84083;BME280;74174;52.224;6.878;2024-02-04T00:40:22;101930.47;;;10.43;95.90
84083;BME280;74174;52.224;6.878;2024-02-04T00:42:48;101923.06;;;10.39;96.72
84083;BME280;74174;52.224;6.878;2024-02-04T00:45:13;101937.16;;;10.39;96.05
84083;BME280;74174;52.224;6.878;2024-02-04T00:47:38;101933.78;;;10.31;96.27
84083;BME280;74174;52.224;6.878;2024-02-04T00:50:04;101911.19;;;10.35;95.37
84083;BME280;74174;52.224;6.878;2024-02-04T00:52:30;101932.84;;;10.38;96.28
84083;BME280;74174;52.224;6.878;2024-02-04T00:54:55;101916.75;;;10.25;95.75
84083;BME280;74174;52.224;6.878;2024-02-04T00:57:22;101948.66;;;10.32;95.86
84083;BME280;74174;52.224;6.878;2024-02-04T00:59:47;101929.00;;;10.26;96.40
84083;BME280;74174;52.224;6.878;2024-02-04T01:02:13;101937.69;;;10.35;96.41
84083;BME280;74174;52.224;6.878;2024-02-04T01:04:40;101934.50;;;10.39;95.62
84083;BME280;74174;52.224;6.878;2024-02-04T01:07:05;101908.72;;;10.19;95.60
84083;BME280;74174;52.224;6.878;2024-02-04T01:09:32;101939.25;;;10.44;95.53
84083;BME280;74174;52.224;6.878;2024-02-04T01:11:57;101947.13;;;10.37;96.23
84083;BME280;74174;52.224;6.878;2024-02-04T01:14:23;101916.84;;;10.32;95.72
84083;BME280;74174;52.224;6.878;2024-02-04T01:16:48;101945.69;;;10.50;94.70
84083;BME280;74174;52.224;6.878;2024-02-04T01:19:14;101948.88;;;10.45;95.96
84083;BME280;74174;52.224;6.878;2024-02-04T01:21:39;101912.09;;;10.27;94.42
84083;BME280;74174;52.224;6.878;2024-02-04T01:24:05;101914.03;;;10.33;94.66
84083;BME280;74174;52.224;6.878;2024-02-04T01:26:32;101943.19;;;10.48;94.62
84083;BME280;74174;52.224;6.878;2024-02-04T01:28:57;101952.22;;;10.39;95.18
84083;BME280;74174;52.224;6.878;2024-02-04T01:31:22;101945.75;;;10.41;94.99
84083;BME280;74174;52.224;6.878;2024-02-04T01:33:48;101944.47;;;10.37;95.33
84083;BME280;74174;52.224;6.878;2024-02-04T01:36:13;101949.78;;;10.37;95.81
84083;BME280;74174;52.224;6.878;2024-02-04T01:38:38;101952.22;;;10.39;94.91
84083;BME280;74174;52.224;6.878;2024-02-04T01:41:04;101956.94;;;10.52;94.24
84083;BME280;74174;52.224;6.878;2024-02-04T01:43:30;101948.25;;;10.43;94.55
84083;BME280;74174;52.224;6.878;2024-02-04T01:45:57;101950.75;;;10.36;95.10
84083;BME280;74174;52.224;6.878;2024-02-04T01:48:22;101915.13;;;10.24;94.99
84083;BME280;74174;52.224;6.878;2024-02-04T01:50:50;101907.03;;;10.18;94.05
84083;BME280;74174;52.224;6.878;2024-02-04T01:53:19;101935.41;;;10.32;95.18
84083;BME280;74174;52.224;6.878;2024-02-04T01:55:47;101934.84;;;10.36;94.48
84083;BME280;74174;52.224;6.878;2024-02-04T01:58:15;101913.91;;;10.27;94.56
84083;BME280;74174;52.224;6.878;2024-02-04T02:00:40;101914.19;;;10.17;94.14
84083;BME280;74174;52.224;6.878;2024-02-04T02:03:06;101922.06;;;10.25;94.12
84083;BME280;74174;52.224;6.878;2024-02-04T02:05:34;101935.50;;;10.24;95.19
84083;BME280;74174;52.224;6.878;2024-02-04T02:08:00;101931.56;;;10.34;94.37
84083;BME280;74174;52.224;6.878;2024-02-04T02:10:27;101894.75;;;10.02;94.35
84083;BME280;74174;52.224;6.878;2024-02-04T02:12:58;101913.81;;;10.20;94.86
84083;BME280;74174;52.224;6.878;2024-02-04T02:15:29;101905.41;;;10.17;93.83
84083;BME280;74174;52.224;6.878;2024-02-04T02:18:10;101908.22;;;10.15;93.84
84083;BME280;74174;52.224;6.878;2024-02-04T02:21:01;101912.75;;;10.07;93.63
84083;BME280;74174;52.224;6.878;2024-02-04T02:23:30;101913.28;;;10.02;94.56
84083;BME280;74174;52.224;6.878;2024-02-04T02:25:56;101909.91;;;10.08;94.02
84083;BME280;74174;52.224;6.878;2024-02-04T02:28:23;101879.34;;;9.83;95.02
84083;BME280;74174;52.224;6.878;2024-02-04T02:30:48;101909.81;;;10.02;94.04
84083;BME280;74174;52.224;6.878;2024-02-04T02:33:14;101923.97;;;10.17;93.65
84083;BME280;74174;52.224;6.878;2024-02-04T02:35:40;101915.09;;;10.02;94.20
84083;BME280;74174;52.224;6.878;2024-02-04T02:38:29;101901.03;;;10.01;93.46
84083;BME280;74174;52.224;6.878;2024-02-04T02:41:05;101917.59;;;10.03;93.48
84083;BME280;74174;52.224;6.878;2024-02-04T02:43:34;101918.78;;;10.01;94.17
84083;BME280;74174;52.224;6.878;2024-02-04T02:46:01;101915.53;;;9.91;94.72
84083;BME280;74174;52.224;6.878;2024-02-04T02:48:28;101916.81;;;9.95;93.54
84083;BME280;74174;52.224;6.878;2024-02-04T02:50:54;101922.66;;;9.90;93.97
84083;BME280;74174;52.224;6.878;2024-02-04T02:53:19;101914.34;;;9.93;92.94
84083;BME280;74174;52.224;6.878;2024-02-04T02:55:45;101924.59;;;9.96;92.74
84083;BME280;74174;52.224;6.878;2024-02-04T02:58:12;101877.97;;;9.72;92.34
84083;BME280;74174;52.224;6.878;2024-02-04T03:00:38;101908.78;;;9.88;92.16
84083;BME280;74174;52.224;6.878;2024-02-04T03:03:03;101881.47;;;9.65;92.65
84083;BME280;74174;52.224;6.878;2024-02-04T03:05:29;101912.13;;;9.82;91.86
84083;BME280;74174;52.224;6.878;2024-02-04T03:07:55;101861.72;;;9.53;91.26
84083;BME280;74174;52.224;6.878;2024-02-04T03:10:20;101898.31;;;9.72;91.05
84083;BME280;74174;52.224;6.878;2024-02-04T03:12:45;101858.44;;;9.51;91.15
84083;BME280;74174;52.224;6.878;2024-02-04T03:15:11;101894.38;;;9.68;90.49
84083;BME280;74174;52.224;6.878;2024-02-04T03:17:36;101891.59;;;9.61;90.40
84083;BME280;74174;52.224;6.878;2024-02-04T03:20:08;101876.22;;;9.57;90.67
84083;BME280;74174;52.224;6.878;2024-02-04T03:22:33;101874.59;;;9.56;91.23
84083;BME280;74174;52.224;6.878;2024-02-04T03:24:59;101884.53;;;9.54;90.37
84083;BME280;74174;52.224;6.878;2024-02-04T03:27:25;101886.38;;;9.53;90.01
84083;BME280;74174;52.224;6.878;2024-02-04T03:29:50;101888.53;;;9.50;90.80
84083;BME280;74174;52.224;6.878;2024-02-04T03:32:15;101895.78;;;9.56;90.50
84083;BME280;74174;52.224;6.878;2024-02-04T03:34:41;101901.91;;;9.56;90.23
84083;BME280;74174;52.224;6.878;2024-02-04T03:37:07;101909.03;;;9.48;91.22
84083;BME280;74174;52.224;6.878;2024-02-04T03:39:32;101912.00;;;9.53;91.17
84083;BME280;74174;52.224;6.878;2024-02-04T03:41:58;101911.31;;;9.59;90.94
84083;BME280;74174;52.224;6.878;2024-02-04T03:44:23;101916.66;;;9.51;91.89
84083;BME280;74174;52.224;6.878;2024-02-04T03:46:49;101889.75;;;9.39;92.03
84083;BME280;74174;52.224;6.878;2024-02-04T03:49:16;101902.69;;;9.34;91.99
84083;BME280;74174;52.224;6.878;2024-02-04T03:51:42;101900.00;;;9.42;92.58
84083;BME280;74174;52.224;6.878;2024-02-04T03:54:09;101886.66;;;9.36;91.69
84083;BME280;74174;52.224;6.878;2024-02-04T03:56:34;101905.41;;;9.49;91.88
84083;BME280;74174;52.224;6.878;2024-02-04T03:59:00;101902.94;;;9.47;90.80
84083;BME280;74174;52.224;6.878;2024-02-04T04:01:25;101892.50;;;9.54;90.84
84083;BME280;74174;52.224;6.878;2024-02-04T04:03:51;101899.78;;;9.52;89.50
84083;BME280;74174;52.224;6.878;2024-02-04T04:06:16;101889.34;;;9.28;89.17
84083;BME280;74174;52.224;6.878;2024-02-04T04:08:42;101905.44;;;9.41;89.92
84083;BME280;74174;52.224;6.878;2024-02-04T04:11:09;101897.69;;;9.39;89.67
84083;BME280;74174;52.224;6.878;2024-02-04T04:13:35;101905.63;;;9.39;89.15
84083;BME280;74174;52.224;6.878;2024-02-04T04:16:01;101916.41;;;9.38;88.50
84083;BME280;74174;52.224;6.878;2024-02-04T04:18:26;101915.75;;;9.36;87.61
84083;BME280;74174;52.224;6.878;2024-02-04T04:20:52;101925.53;;;9.27;87.93
84083;BME280;74174;52.224;6.878;2024-02-04T04:23:17;101919.91;;;9.30;88.27
84083;BME280;74174;52.224;6.878;2024-02-04T04:25:43;101911.63;;;9.33;88.25
84083;BME280;74174;52.224;6.878;2024-02-04T04:28:08;101897.31;;;9.20;87.63
84083;BME280;74174;52.224;6.878;2024-02-04T04:30:34;101920.25;;;9.27;87.17
84083;BME280;74174;52.224;6.878;2024-02-04T04:32:59;101922.94;;;9.19;88.10
84083;BME280;74174;52.224;6.878;2024-02-04T04:35:24;101905.41;;;9.18;88.04
84083;BME280;74174;52.224;6.878;2024-02-04T04:37:50;101910.53;;;9.20;88.34
84083;BME280;74174;52.224;6.878;2024-02-04T04:40:15;101900.63;;;9.22;87.17
84083;BME280;74174;52.224;6.878;2024-02-04T04:42:41;101905.59;;;9.17;87.80
84083;BME280;74174;52.224;6.878;2024-02-04T04:45:06;101901.81;;;9.11;87.66
84083;BME280;74174;52.224;6.878;2024-02-04T04:47:33;101887.84;;;8.94;88.76
84083;BME280;74174;52.224;6.878;2024-02-04T04:49:59;101909.75;;;9.11;87.86
84083;BME280;74174;52.224;6.878;2024-02-04T04:52:24;101909.75;;;9.11;87.66
84083;BME280;74174;52.224;6.878;2024-02-04T04:54:49;101906.59;;;9.16;86.76
84083;BME280;74174;52.224;6.878;2024-02-04T04:57:15;101898.00;;;9.14;87.11
84083;BME280;74174;52.224;6.878;2024-02-04T04:59:42;101889.31;;;9.05;88.10
84083;BME280;74174;52.224;6.878;2024-02-04T05:02:08;101895.38;;;9.05;87.90
84083;BME280;74174;52.224;6.878;2024-02-04T05:04:37;101893.13;;;8.94;87.98
84083;BME280;74174;52.224;6.878;2024-02-04T05:07:02;101896.22;;;9.06;87.59
84083;BME280;74174;52.224;6.878;2024-02-04T05:09:28;101891.06;;;9.13;87.93
84083;BME280;74174;52.224;6.878;2024-02-04T05:11:54;101870.28;;;9.10;87.71
84083;BME280;74174;52.224;6.878;2024-02-04T05:14:20;101852.84;;;8.92;88.09
84083;BME280;74174;52.224;6.878;2024-02-04T05:16:48;101869.78;;;9.06;88.13
84083;BME280;74174;52.224;6.878;2024-02-04T05:19:13;101872.53;;;9.13;88.01
84083;BME280;74174;52.224;6.878;2024-02-04T05:21:39;101847.31;;;9.10;88.53
84083;BME280;74174;52.224;6.878;2024-02-04T05:24:05;101864.59;;;9.13;88.52
84083;BME280;74174;52.224;6.878;2024-02-04T05:26:31;101836.41;;;9.05;89.51
84083;BME280;74174;52.224;6.878;2024-02-04T05:28:56;101862.34;;;9.10;88.98
84083;BME280;74174;52.224;6.878;2024-02-04T05:31:22;101863.94;;;9.19;89.13
84083;BME280;74174;52.224;6.878;2024-02-04T05:33:48;101865.75;;;9.18;88.72
84083;BME280;74174;52.224;6.878;2024-02-04T05:36:14;101865.44;;;9.13;88.70
84083;BME280;74174;52.224;6.878;2024-02-04T05:38:43;101860.88;;;9.07;89.29
84083;BME280;74174;52.224;6.878;2024-02-04T05:41:09;101856.53;;;9.14;88.10
84083;BME280;74174;52.224;6.878;2024-02-04T05:43:37;101863.44;;;9.15;88.18
84083;BME280;74174;52.224;6.878;2024-02-04T05:46:03;101852.19;;;9.21;87.63
84083;BME280;74174;52.224;6.878;2024-02-04T05:48:28;101844.78;;;9.17;86.68
84083;BME280;74174;52.224;6.878;2024-02-04T05:50:54;101860.75;;;9.23;86.41
84083;BME280;74174;52.224;6.878;2024-02-04T05:53:19;101882.03;;;9.30;85.69
84083;BME280;74174;52.224;6.878;2024-02-04T05:55:46;101874.97;;;9.22;85.75
84083;BME280;74174;52.224;6.878;2024-02-04T05:58:12;101863.09;;;9.18;85.17
84083;BME280;74174;52.224;6.878;2024-02-04T06:00:39;101866.25;;;9.22;84.98
84083;BME280;74174;52.224;6.878;2024-02-04T06:03:05;101872.00;;;9.25;83.51
84083;BME280;74174;52.224;6.878;2024-02-04T06:05:30;101874.22;;;9.14;84.89
84083;BME280;74174;52.224;6.878;2024-02-04T06:07:55;101855.50;;;9.15;83.43
84083;BME280;74174;52.224;6.878;2024-02-04T06:10:22;101846.78;;;9.15;83.23
84083;BME280;74174;52.224;6.878;2024-02-04T06:12:47;101851.56;;;9.11;83.16
84083;BME280;74174;52.224;6.878;2024-02-04T06:15:13;101852.19;;;9.21;82.88
84083;BME280;74174;52.224;6.878;2024-02-04T06:17:41;101849.56;;;9.13;82.53
84083;BME280;74174;52.224;6.878;2024-02-04T06:20:07;101859.69;;;9.10;82.56
84083;BME280;74174;52.224;6.878;2024-02-04T06:22:34;101856.66;;;9.21;82.01
84083;BME280;74174;52.224;6.878;2024-02-04T06:25:00;101860.88;;;9.07;81.27
84083;BME280;74174;52.224;6.878;2024-02-04T06:27:25;101866.72;;;9.17;81.11
84083;BME280;74174;52.224;6.878;2024-02-04T06:29:51;101867.63;;;9.10;81.46
84083;BME280;74174;52.224;6.878;2024-02-04T06:32:16;101849.22;;;8.93;81.25
84083;BME280;74174;52.224;6.878;2024-02-04T06:34:46;101865.66;;;9.03;80.83
84083;BME280;74174;52.224;6.878;2024-02-04T06:37:12;101855.38;;;9.09;79.81
84083;BME280;74174;52.224;6.878;2024-02-04T06:39:37;101848.38;;;8.93;81.24
84083;BME280;74174;52.224;6.878;2024-02-04T06:42:03;101852.19;;;8.90;81.39
84083;BME280;74174;52.224;6.878;2024-02-04T06:44:29;101849.22;;;8.93;80.44
84083;BME280;74174;52.224;6.878;2024-02-04T06:46:54;101869.97;;;9.04;80.06
84083;BME280;74174;52.224;6.878;2024-02-04T06:49:21;101844.59;;;8.87;80.85
84083;BME280;74174;52.224;6.878;2024-02-04T06:51:47;101866.38;;;8.89;80.49
84083;BME280;74174;52.224;6.878;2024-02-04T06:54:14;101846.28;;;8.80;80.75
84083;BME280;74174;52.224;6.878;2024-02-04T06:56:40;101865.41;;;8.90;80.60
84083;BME280;74174;52.224;6.878;2024-02-04T06:59:05;101843.47;;;8.82;80.91
84083;BME280;74174;52.224;6.878;2024-02-04T07:01:32;101859.94;;;8.92;80.35
84083;BME280;74174;52.224;6.878;2024-02-04T07:03:58;101861.16;;;8.81;80.39
84083;BME280;74174;52.224;6.878;2024-02-04T07:06:23;101849.28;;;8.77;80.98
84083;BME280;74174;52.224;6.878;2024-02-04T07:08:49;101848.75;;;8.82;80.61
84083;BME280;74174;52.224;6.878;2024-02-04T07:11:15;101835.38;;;8.83;80.25
84083;BME280;74174;52.224;6.878;2024-02-04T07:13:41;101842.13;;;8.86;80.03
84083;BME280;74174;52.224;6.878;2024-02-04T07:16:06;101840.31;;;8.86;79.88
84083;BME280;74174;52.224;6.878;2024-02-04T07:18:31;101840.44;;;8.93;79.04
84083;BME280;74174;52.224;6.878;2024-02-04T07:20:57;101824.22;;;8.65;80.22
84083;BME280;74174;52.224;6.878;2024-02-04T07:23:22;101848.09;;;8.80;79.92
84083;BME280;74174;52.224;6.878;2024-02-04T07:25:48;101850.25;;;8.76;80.30
84083;BME280;74174;52.224;6.878;2024-02-04T07:28:13;101846.47;;;8.79;80.41
84083;BME280;74174;52.224;6.878;2024-02-04T07:30:40;101842.34;;;8.76;80.47
84083;BME280;74174;52.224;6.878;2024-02-04T07:33:05;101840.84;;;8.74;80.96
84083;BME280;74174;52.224;6.878;2024-02-04T07:35:32;101832.75;;;8.75;81.45
84083;BME280;74174;52.224;6.878;2024-02-04T07:37:58;101847.97;;;8.73;81.29
84083;BME280;74174;52.224;6.878;2024-02-04T07:40:23;101840.66;;;8.83;81.21
84083;BME280;74174;52.224;6.878;2024-02-04T07:42:48;101842.34;;;8.76;82.22
84083;BME280;74174;52.224;6.878;2024-02-04T07:45:14;101832.91;;;8.82;82.65
84083;BME280;74174;52.224;6.878;2024-02-04T07:47:41;101841.31;;;8.85;82.18
84083;BME280;74174;52.224;6.878;2024-02-04T07:50:07;101839.50;;;8.86;82.73
84083;BME280;74174;52.224;6.878;2024-02-04T07:52:33;101825.44;;;8.85;82.98
84083;BME280;74174;52.224;6.878;2024-02-04T07:54:58;101838.84;;;8.84;82.98
84083;BME280;74174;52.224;6.878;2024-02-04T07:57:24;101837.63;;;8.94;83.21
84083;BME280;74174;52.224;6.878;2024-02-04T07:59:51;101840.75;;;8.98;82.50
84083;BME280;74174;52.224;6.878;2024-02-04T08:02:18;101824.41;;;8.94;83.29
84083;BME280;74174;52.224;6.878;2024-02-04T08:04:43;101823.34;;;9.03;83.16
84083;BME280;74174;52.224;6.878;2024-02-04T08:07:09;101833.34;;;8.93;83.72
84083;BME280;74174;52.224;6.878;2024-02-04T08:09:34;101825.19;;;9.03;83.39
84083;BME280;74174;52.224;6.878;2024-02-04T08:12:00;101802.81;;;9.14;83.69
84083;BME280;74174;52.224;6.878;2024-02-04T08:14:27;101803.34;;;9.09;83.93
84083;BME280;74174;52.224;6.878;2024-02-04T08:16:52;101806.91;;;9.16;84.09
84083;BME280;74174;52.224;6.878;2024-02-04T08:19:18;101801.81;;;9.15;84.06
84083;BME280;74174;52.224;6.878;2024-02-04T08:21:43;101789.28;;;9.09;84.58
84083;BME280;74174;52.224;6.878;2024-02-04T08:24:09;101799.44;;;9.20;83.78
84083;BME280;74174;52.224;6.878;2024-02-04T08:26:37;101804.41;;;9.23;84.22
84083;BME280;74174;52.224;6.878;2024-02-04T08:29:03;101794.00;;;9.21;83.99
84083;BME280;74174;52.224;6.878;2024-02-04T08:31:31;101803.03;;;9.27;84.62
84083;BME280;74174;52.224;6.878;2024-02-04T08:33:57;101807.38;;;9.20;84.51
84083;BME280;74174;52.224;6.878;2024-02-04T08:36:22;101799.44;;;9.20;84.63
84083;BME280;74174;52.224;6.878;2024-02-04T08:38:49;101802.38;;;9.25;85.22
84083;BME280;74174;52.224;6.878;2024-02-04T08:41:14;101813.63;;;9.27;84.87
84083;BME280;74174;52.224;6.878;2024-02-04T08:43:40;101816.50;;;9.40;84.55
84083;BME280;74174;52.224;6.878;2024-02-04T08:46:05;101813.22;;;9.38;83.87
84083;BME280;74174;52.224;6.878;2024-02-04T08:48:30;101797.69;;;9.35;84.30
84083;BME280;74174;52.224;6.878;2024-02-04T08:50:56;101790.41;;;9.37;83.18
84083;BME280;74174;52.224;6.878;2024-02-04T08:53:21;101785.59;;;9.40;83.33
84083;BME280;74174;52.224;6.878;2024-02-04T08:55:49;101785.75;;;9.39;83.76
84083;BME280;74174;52.224;6.878;2024-02-04T08:58:15;101790.69;;;9.42;83.96
84083;BME280;74174;52.224;6.878;2024-02-04T09:00:41;101784.03;;;9.46;83.23
84083;BME280;74174;52.224;6.878;2024-02-04T09:03:06;101786.94;;;9.36;83.52
84083;BME280;74174;52.224;6.878;2024-02-04T09:05:33;101794.91;;;9.51;82.94
84083;BME280;74174;52.224;6.878;2024-02-04T09:08:00;101793.16;;;9.43;83.04
84083;BME280;74174;52.224;6.878;2024-02-04T09:10:26;101795.81;;;9.43;83.07
84083;BME280;74174;52.224;6.878;2024-02-04T09:12:52;101778.00;;;9.37;82.57
84083;BME280;74174;52.224;6.878;2024-02-04T09:15:17;101792.63;;;9.48;82.13
84083;BME280;74174;52.224;6.878;2024-02-04T09:17:43;101794.47;;;9.47;83.00
84083;BME280;74174;52.224;6.878;2024-02-04T09:20:10;101792.47;;;9.49;82.78
84083;BME280;74174;52.224;6.878;2024-02-04T09:22:37;101818.97;;;9.41;83.66
84083;BME280;74174;52.224;6.878;2024-02-04T09:25:05;101807.22;;;9.44;82.89
84083;BME280;74174;52.224;6.878;2024-02-04T09:27:32;101786.13;;;9.36;83.81
84083;BME280;74174;52.224;6.878;2024-02-04T09:30:00;101793.16;;;9.43;83.07
84083;BME280;74174;52.224;6.878;2024-02-04T09:32:26;101809.28;;;9.56;83.06
84083;BME280;74174;52.224;6.878;2024-02-04T09:34:52;101811.03;;;9.41;83.21
84083;BME280;74174;52.224;6.878;2024-02-04T09:37:17;101808.16;;;9.51;83.34
84083;BME280;74174;52.224;6.878;2024-02-04T09:39:42;101804.88;;;9.49;83.27
84083;BME280;74174;52.224;6.878;2024-02-04T09:42:08;101813.84;;;9.62;83.46
84083;BME280;74174;52.224;6.878;2024-02-04T09:44:34;101808.75;;;9.61;83.84
84083;BME280;74174;52.224;6.878;2024-02-04T09:47:02;101814.97;;;9.68;83.23
84083;BME280;74174;52.224;6.878;2024-02-04T09:49:27;101817.31;;;9.63;83.93
84083;BME280;74174;52.224;6.878;2024-02-04T09:51:56;101820.25;;;9.68;84.38
84083;BME280;74174;52.224;6.878;2024-02-04T09:54:24;101798.94;;;9.61;85.21
84083;BME280;74174;52.224;6.878;2024-02-04T09:56:51;101815.25;;;9.73;85.60
84083;BME280;74174;52.224;6.878;2024-02-04T09:59:17;101824.78;;;9.82;85.04
84083;BME280;74174;52.224;6.878;2024-02-04T10:01:44;101820.94;;;9.85;85.39
84083;BME280;74174;52.224;6.878;2024-02-04T10:04:10;101825.78;;;9.96;85.06
84083;BME280;74174;52.224;6.878;2024-02-04T10:06:35;101813.09;;;9.91;85.04
84083;BME280;74174;52.224;6.878;2024-02-04T10:09:01;101801.69;;;9.91;84.92
84083;BME280;74174;52.224;6.878;2024-02-04T10:11:26;101799.47;;;9.94;85.59
84083;BME280;74174;52.224;6.878;2024-02-04T10:14:00;101796.47;;;9.97;86.12
84083;BME280;74174;52.224;6.878;2024-02-04T10:16:25;101786.53;;;9.99;85.27
84083;BME280;74174;52.224;6.878;2024-02-04T10:18:52;101786.63;;;9.91;86.05
84083;BME280;74174;52.224;6.878;2024-02-04T10:21:21;101793.94;;;9.89;86.56
84083;BME280;74174;52.224;6.878;2024-02-04T10:23:47;101780.22;;;9.86;86.59
84083;BME280;74174;52.224;6.878;2024-02-04T10:26:13;101778.38;;;9.86;87.30
84083;BME280;74174;52.224;6.878;2024-02-04T10:28:39;101775.84;;;9.93;87.49
84083;BME280;74174;52.224;6.878;2024-02-04T10:31:09;101778.03;;;10.04;86.52
84083;BME280;74174;52.224;6.878;2024-02-04T10:33:38;101776.16;;;10.12;87.10
84083;BME280;74174;52.224;6.878;2024-02-04T10:36:04;101789.66;;;10.03;86.68
84083;BME280;74174;52.224;6.878;2024-02-04T10:38:30;101791.38;;;10.10;86.14
84083;BME280;74174;52.224;6.878;2024-02-04T10:40:58;101786.09;;;10.10;86.66
84083;BME280;74174;52.224;6.878;2024-02-04T10:43:35;101782.34;;;10.05;87.41
84083;BME280;74174;52.224;6.878;2024-02-04T10:46:12;101782.88;;;10.00;87.83
84083;BME280;74174;52.224;6.878;2024-02-04T10:48:41;101793.28;;;10.02;88.18
84083;BME280;74174;52.224;6.878;2024-02-04T10:51:13;101795.16;;;10.16;87.25
84083;BME280;74174;52.224;6.878;2024-02-04T10:53:43;101782.09;;;10.14;88.02
84083;BME280;74174;52.224;6.878;2024-02-04T10:56:14;101776.69;;;10.22;87.37
84083;BME280;74174;52.224;6.878;2024-02-04T10:58:43;101780.53;;;10.20;86.87
84083;BME280;74174;52.224;6.878;2024-02-04T11:01:10;101779.00;;;10.25;87.02
84083;BME280;74174;52.224;6.878;2024-02-04T11:03:38;101774.94;;;10.29;87.25
84083;BME280;74174;52.224;6.878;2024-02-04T11:06:04;101769.13;;;10.19;87.57
84083;BME280;74174;52.224;6.878;2024-02-04T11:08:29;101765.66;;;10.33;87.52
84083;BME280;74174;52.224;6.878;2024-02-04T11:10:55;101765.91;;;10.38;86.58
84083;BME280;74174;52.224;6.878;2024-02-04T11:13:23;101751.84;;;10.23;86.43
84083;BME280;74174;52.224;6.878;2024-02-04T11:15:49;101756.25;;;10.31;86.72
84083;BME280;74174;52.224;6.878;2024-02-04T11:23:58;101742.72;;;10.40;85.49
84083;BME280;74174;52.224;6.878;2024-02-04T11:26:29;101757.44;;;10.43;85.52
84083;BME280;74174;52.224;6.878;2024-02-04T11:28:55;101746.63;;;10.45;85.88
84083;BME280;74174;52.224;6.878;2024-02-04T11:31:22;101750.19;;;10.52;84.95
84083;BME280;74174;52.224;6.878;2024-02-04T11:33:56;101732.34;;;10.46;84.98
84083;BME280;74174;52.224;6.878;2024-02-04T11:36:25;101714.38;;;10.41;85.53
84083;BME280;74174;52.224;6.878;2024-02-04T11:38:50;101728.50;;;10.48;85.10
84083;BME280;74174;52.224;6.878;2024-02-04T11:41:22;101727.88;;;10.46;85.11
84083;BME280;74174;52.224;6.878;2024-02-04T11:43:53;101728.34;;;10.50;85.84
84083;BME280;74174;52.224;6.878;2024-02-04T11:46:29;101723.38;;;10.61;84.79
84083;BME280;74174;52.224;6.878;2024-02-04T11:48:55;101712.38;;;10.64;85.21
84083;BME280;74174;52.224;6.878;2024-02-04T11:51:25;101717.78;;;10.71;84.94
84083;BME280;74174;52.224;6.878;2024-02-04T11:53:51;101714.31;;;10.70;83.91
84083;BME280;74174;52.224;6.878;2024-02-04T11:56:18;101729.44;;;10.76;84.31
84083;BME280;74174;52.224;6.878;2024-02-04T11:58:50;101716.75;;;10.72;83.04
84083;BME280;74174;52.224;6.878;2024-02-04T12:01:16;101718.53;;;10.86;83.21
84083;BME280;74174;52.224;6.878;2024-02-04T12:03:44;101714.63;;;10.82;82.75
84083;BME280;74174;52.224;6.878;2024-02-04T12:06:10;101695.03;;;10.83;81.06
84083;BME280;74174;52.224;6.878;2024-02-04T12:08:41;101713.56;;;10.97;79.83
84083;BME280;74174;52.224;6.878;2024-02-04T12:11:06;101723.16;;;10.98;80.69
84083;BME280;74174;52.224;6.878;2024-02-04T12:13:32;101706.47;;;11.04;81.10
84083;BME280;74174;52.224;6.878;2024-02-04T12:16:03;101715.53;;;11.10;80.44
84083;BME280;74174;52.224;6.878;2024-02-04T12:18:29;101696.31;;;11.08;80.33
84083;BME280;74174;52.224;6.878;2024-02-04T12:20:54;101707.19;;;11.13;79.55
84083;BME280;74174;52.224;6.878;2024-02-04T12:23:21;101693.91;;;11.13;78.51
84083;BME280;74174;52.224;6.878;2024-02-04T12:25:48;101710.22;;;11.10;79.24
84083;BME280;74174;52.224;6.878;2024-02-04T12:28:14;101700.84;;;11.14;79.92
84083;BME280;74174;52.224;6.878;2024-02-04T12:30:40;101699.44;;;11.18;78.63
84083;BME280;74174;52.224;6.878;2024-02-04T12:33:09;101703.50;;;11.14;79.09
84083;BME280;74174;52.224;6.878;2024-02-04T12:35:35;101697.56;;;11.12;78.43
84083;BME280;74174;52.224;6.878;2024-02-04T12:38:01;101684.44;;;11.04;79.00
84083;BME280;74174;52.224;6.878;2024-02-04T12:40:29;101703.44;;;11.07;78.66
84083;BME280;74174;52.224;6.878;2024-02-04T12:43:00;101702.25;;;11.10;78.53
84083;BME280;74174;52.224;6.878;2024-02-04T12:45:28;101700.84;;;11.14;78.43
84083;BME280;74174;52.224;6.878;2024-02-04T12:47:55;101704.66;;;11.05;78.33
84083;BME280;74174;52.224;6.878;2024-02-04T12:50:21;101706.16;;;11.14;79.10
84083;BME280;74174;52.224;6.878;2024-02-04T12:52:49;101717.81;;;11.13;78.68
84083;BME280;74174;52.224;6.878;2024-02-04T12:55:26;101716.16;;;11.12;79.17
84083;BME280;74174;52.224;6.878;2024-02-04T12:58:12;101717.03;;;11.19;78.84